Time;durP1;ratioP1;P1;durP2;ratioP2;P2;SDS_P1;SDS_P2;PMS_P1;PMS_P2;Temp;Humidity;BMP_temperature;BMP_pressure;BME280_temperature;BME280_humidity;BME280_pressure;Samples;Min_cycle;Max_cycle;Signal;HPM_P1;HPM_P2
2023/01/08 00:01:04;;;;;;;5.60;3.37;;;;;;;;;;5090627;28;20452;-72
2023/01/08 00:03:31;;;;;;;7.30;3.03;;;;;;;;;;5090898;28;20483;-73
2023/01/08 00:06:02;;;;;;;3.83;2.50;;;;;;;;;;5091060;28;20788;-73
2023/01/08 00:08:29;;;;;;;4.70;2.30;;;;;;;;;;5090737;28;20447;-73
2023/01/08 00:10:56;;;;;;;7.30;2.77;;;;;;;;;;5090328;28;20447;-72
2023/01/08 00:13:23;;;;;;;7.57;3.63;;;;;;;;;;5089797;28;20659;-72
2023/01/08 00:15:51;;;;;;;4.20;3.00;;;;;;;;;;5090724;28;20463;-73
2023/01/08 00:18:18;;;;;;;5.53;2.97;;;;;;;;;;5090034;28;20463;-72
2023/01/08 00:20:45;;;;;;;4.50;2.30;;;;;;;;;;5090419;28;20452;-73
2023/01/08 00:23:14;;;;;;;5.20;2.80;;;;;;;;;;5089891;28;20483;-72
2023/01/08 00:25:41;;;;;;;3.80;2.67;;;;;;;;;;5090664;28;20444;-73
2023/01/08 00:28:08;;;;;;;2.67;2.43;;;;;;;;;;5089918;28;20460;-72
2023/01/08 00:30:35;;;;;;;7.30;3.37;;;;;;;;;;5089865;28;20456;-72
2023/01/08 00:33:03;;;;;;;4.90;3.07;;;;;;;;;;5090609;28;20462;-72
2023/01/08 00:35:30;;;;;;;4.67;3.00;;;;;;;;;;5090878;28;20450;-72
2023/01/08 00:37:57;;;;;;;4.20;2.40;;;;;;;;;;5090552;28;20524;-73
2023/01/08 00:40:25;;;;;;;5.40;2.60;;;;;;;;;;5089566;28;20455;-72
2023/01/08 00:42:52;;;;;;;8.90;2.33;;;;;;;;;;5090299;28;20496;-73
2023/01/08 00:45:19;;;;;;;4.80;2.70;;;;;;;;;;5091106;28;20448;-72
2023/01/08 00:47:47;;;;;;;5.30;3.00;;;;;;;;;;5094150;28;20462;-73
2023/01/08 00:50:14;;;;;;;4.30;2.53;;;;;;;;;;5093166;28;20448;-72
2023/01/08 00:52:41;;;;;;;3.90;2.93;;;;;;;;;;5093642;28;20451;-73
2023/01/08 00:55:08;;;;;;;3.47;2.60;;;;;;;;;;5093472;28;20471;-72
2023/01/08 00:57:37;;;;;;;6.83;4.60;;;;;;;;;;5093598;28;20935;-72
2023/01/08 01:00:06;;;;;;;4.20;2.90;;;;;;;;;;5092799;28;20449;-71
2023/01/08 01:02:33;;;;;;;6.13;3.03;;;;;;;;;;5093866;28;20510;-72
2023/01/08 01:05:00;;;;;;;4.63;2.80;;;;;;;;;;5093821;28;20451;-72
2023/01/08 01:07:27;;;;;;;3.43;2.40;;;;;;;;;;5093286;28;20460;-72
2023/01/08 01:09:54;;;;;;;4.93;3.13;;;;;;;;;;5093129;28;20456;-73
2023/01/08 01:12:21;;;;;;;5.10;2.40;;;;;;;;;;5092912;28;20455;-72
2023/01/08 01:14:50;;;;;;;4.03;2.13;;;;;;;;;;5093045;28;20452;-72
2023/01/08 01:17:17;;;;;;;6.10;3.07;;;;;;;;;;5092919;28;20440;-72
2023/01/08 01:19:44;;;;;;;4.43;2.60;;;;;;;;;;5092673;28;20448;-72
2023/01/08 01:22:11;;;;;;;3.23;2.90;;;;;;;;;;5093081;28;20799;-71
2023/01/08 01:24:38;;;;;;;3.90;2.70;;;;;;;;;;5093174;28;20492;-72
2023/01/08 01:27:05;;;;;;;3.13;2.23;;;;;;;;;;5092792;28;20863;-71
2023/01/08 01:29:32;;;;;;;2.90;2.13;;;;;;;;;;5093322;28;20454;-72
2023/01/08 01:32:01;;;;;;;4.00;2.57;;;;;;;;;;5092795;28;20543;-72
2023/01/08 01:34:28;;;;;;;3.80;2.20;;;;;;;;;;5092873;28;20479;-72
2023/01/08 01:36:55;;;;;;;5.67;2.60;;;;;;;;;;5092807;28;20482;-73
2023/01/08 01:39:22;;;;;;;4.23;2.50;;;;;;;;;;5092371;28;20459;-73
2023/01/08 01:41:49;;;;;;;3.60;2.60;;;;;;;;;;5092526;28;20459;-73
2023/01/08 01:44:40;;;;;;;3.30;2.40;;;;;;;;;;5092427;28;21077;-73
2023/01/08 01:47:13;;;;;;;4.90;3.10;;;;;;;;;;5091983;28;20825;-72
2023/01/08 01:49:43;;;;;;;4.50;2.23;;;;;;;;;;5092457;28;20445;-72
2023/01/08 01:52:11;;;;;;;5.00;2.90;;;;;;;;;;5092073;28;20446;-72
2023/01/08 01:54:38;;;;;;;4.37;3.10;;;;;;;;;;5092530;28;20460;-73
2023/01/08 01:57:05;;;;;;;3.73;2.83;;;;;;;;;;5090750;28;20460;-72
2023/01/08 01:59:32;;;;;;;2.63;1.67;;;;;;;;;;5092937;28;20455;-73
2023/01/08 02:02:00;;;;;;;4.67;2.40;;;;;;;;;;5092248;28;20453;-72
2023/01/08 02:04:28;;;;;;;4.23;2.70;;;;;;;;;;5092031;28;20890;-72
2023/01/08 02:06:59;;;;;;;3.23;2.13;;;;;;;;;;5092385;28;20495;-72
2023/01/08 02:09:32;;;;;;;4.10;2.60;;;;;;;;;;5091856;28;20441;-72
2023/01/08 02:12:16;;;;;;;2.93;2.23;;;;;;;;;;5091917;28;20531;-72
2023/01/08 02:14:47;;;;;;;3.33;2.23;;;;;;;;;;5092400;28;20456;-72
2023/01/08 02:17:16;;;;;;;4.00;2.73;;;;;;;;;;5091834;28;20768;-72
2023/01/08 02:19:46;;;;;;;3.07;2.77;;;;;;;;;;5091970;28;20451;-72
2023/01/08 02:22:21;;;;;;;2.60;1.60;;;;;;;;;;5091606;28;20451;-72
2023/01/08 02:24:54;;;;;;;3.80;2.40;;;;;;;;;;5091548;28;20476;-73
2023/01/08 02:27:23;;;;;;;5.53;3.07;;;;;;;;;;5091535;28;20443;-73
2023/01/08 02:29:51;;;;;;;3.70;2.30;;;;;;;;;;5091657;28;20477;-72
2023/01/08 02:32:18;;;;;;;2.90;2.60;;;;;;;;;;5091133;28;20978;-72
2023/01/08 02:34:46;;;;;;;4.90;2.57;;;;;;;;;;5091747;28;20456;-72
2023/01/08 02:37:13;;;;;;;3.50;2.30;;;;;;;;;;5091484;28;20505;-73
2023/01/08 02:39:50;;;;;;;3.00;2.57;;;;;;;;;;5091255;28;20451;-72
2023/01/08 02:42:22;;;;;;;10.90;3.23;;;;;;;;;;5091126;28;20501;-73
2023/01/08 02:44:54;;;;;;;2.70;2.00;;;;;;;;;;5091693;28;20474;-73
2023/01/08 02:47:26;;;;;;;3.17;2.30;;;;;;;;;;5091085;28;20440;-73
2023/01/08 02:49:55;;;;;;;3.70;2.23;;;;;;;;;;5091393;28;20451;-73
2023/01/08 02:52:24;;;;;;;3.10;2.00;;;;;;;;;;5091046;28;20757;-73
2023/01/08 02:54:51;;;;;;;4.27;2.00;;;;;;;;;;5091156;28;20449;-73
2023/01/08 02:57:19;;;;;;;3.23;2.50;;;;;;;;;;5090845;28;20458;-73
2023/01/08 02:59:49;;;;;;;3.50;2.30;;;;;;;;;;5090878;28;20805;-73
2023/01/08 03:02:17;;;;;;;3.53;3.20;;;;;;;;;;5090791;28;20778;-73
2023/01/08 03:04:49;;;;;;;3.47;2.47;;;;;;;;;;5091145;28;20997;-73
2023/01/08 03:07:16;;;;;;;4.03;2.33;;;;;;;;;;5090735;28;20437;-72
2023/01/08 03:09:44;;;;;;;4.73;2.73;;;;;;;;;;5090310;28;20475;-72
2023/01/08 03:12:16;;;;;;;3.67;2.33;;;;;;;;;;5090710;28;20795;-72
2023/01/08 03:14:46;;;;;;;5.73;3.60;;;;;;;;;;5091312;28;20462;-72
2023/01/08 03:17:15;;;;;;;2.27;2.07;;;;;;;;;;5090689;28;20452;-72
2023/01/08 03:19:45;;;;;;;3.27;2.60;;;;;;;;;;5090624;28;20446;-72
2023/01/08 03:22:14;;;;;;;4.63;2.30;;;;;;;;;;5090589;28;20451;-72
2023/01/08 03:24:42;;;;;;;3.53;2.50;;;;;;;;;;5090863;28;20486;-72
2023/01/08 03:27:10;;;;;;;2.90;1.97;;;;;;;;;;5090507;28;20444;-72
2023/01/08 03:29:40;;;;;;;5.37;2.70;;;;;;;;;;5090627;28;20451;-72
2023/01/08 03:32:09;;;;;;;3.80;2.70;;;;;;;;;;5090304;28;20901;-72
2023/01/08 03:34:38;;;;;;;3.50;2.30;;;;;;;;;;5090753;28;20796;-72
2023/01/08 03:37:08;;;;;;;3.47;2.00;;;;;;;;;;5090193;28;20967;-72
2023/01/08 03:39:38;;;;;;;5.13;2.30;;;;;;;;;;5090001;28;20461;-72
2023/01/08 03:42:07;;;;;;;3.03;2.17;;;;;;;;;;5089890;28;20448;-72
2023/01/08 03:44:35;;;;;;;2.17;1.37;;;;;;;;;;5090276;28;20496;-73
2023/01/08 03:47:03;;;;;;;4.27;2.83;;;;;;;;;;5090964;28;20505;-73
2023/01/08 03:49:31;;;;;;;3.00;2.37;;;;;;;;;;5089943;28;20529;-72
2023/01/08 03:51:58;;;;;;;7.97;2.20;;;;;;;;;;5090920;28;20798;-72
2023/01/08 03:54:30;;;;;;;3.33;1.80;;;;;;;;;;5089943;28;20448;-73
2023/01/08 03:56:57;;;;;;;2.97;2.30;;;;;;;;;;5090666;28;20438;-72
2023/01/08 03:59:25;;;;;;;2.87;1.80;;;;;;;;;;5089619;28;20480;-72
2023/01/08 04:01:52;;;;;;;3.57;3.07;;;;;;;;;;5090090;28;20942;-72
2023/01/08 04:04:19;;;;;;;4.20;3.33;;;;;;;;;;5089962;28;20492;-72
2023/01/08 04:06:46;;;;;;;4.33;2.20;;;;;;;;;;5090295;28;20450;-72
2023/01/08 04:09:13;;;;;;;3.60;2.37;;;;;;;;;;5089765;28;20454;-72
2023/01/08 04:11:41;;;;;;;4.00;2.37;;;;;;;;;;5090004;28;20456;-72
2023/01/08 04:14:11;;;;;;;7.33;2.80;;;;;;;;;;5090107;28;20460;-71
2023/01/08 04:16:38;;;;;;;3.50;2.60;;;;;;;;;;5090152;28;20950;-72
2023/01/08 04:19:05;;;;;;;3.07;2.10;;;;;;;;;;5089555;28;20450;-71
2023/01/08 04:21:32;;;;;;;2.87;2.10;;;;;;;;;;5092974;28;20461;-72
2023/01/08 04:23:59;;;;;;;5.77;3.10;;;;;;;;;;5094265;28;20480;-72
2023/01/08 04:26:26;;;;;;;4.07;2.20;;;;;;;;;;5093527;28;20442;-72
2023/01/08 04:28:55;;;;;;;2.97;1.80;;;;;;;;;;5094402;28;20463;-72
2023/01/08 04:31:22;;;;;;;4.10;2.60;;;;;;;;;;5092863;28;20455;-72
2023/01/08 04:33:49;;;;;;;2.20;2.00;;;;;;;;;;5094272;28;20474;-73
2023/01/08 04:36:16;;;;;;;3.87;2.40;;;;;;;;;;5093492;28;20447;-72
2023/01/08 04:38:43;;;;;;;4.03;2.03;;;;;;;;;;5094216;28;20469;-72
2023/01/08 04:41:10;;;;;;;6.10;2.27;;;;;;;;;;5093192;28;20444;-71
2023/01/08 04:43:37;;;;;;;4.33;2.57;;;;;;;;;;5094027;28;20481;-72
2023/01/08 04:46:07;;;;;;;5.87;2.63;;;;;;;;;;5093500;28;20850;-71
2023/01/08 04:48:34;;;;;;;2.17;1.60;;;;;;;;;;5094177;28;20444;-72
2023/01/08 04:51:02;;;;;;;4.10;2.10;;;;;;;;;;5093501;28;20450;-72
2023/01/08 04:53:29;;;;;;;5.60;2.30;;;;;;;;;;5094022;28;20478;-72
2023/01/08 04:55:56;;;;;;;1.93;1.73;;;;;;;;;;5093600;28;20509;-72
2023/01/08 04:58:23;;;;;;;2.27;1.43;;;;;;;;;;5093396;28;21064;-72
2023/01/08 05:00:50;;;;;;;4.20;2.07;;;;;;;;;;5093269;28;20455;-72
2023/01/08 05:03:19;;;;;;;2.50;1.30;;;;;;;;;;5092840;28;20457;-71
2023/01/08 05:05:46;;;;;;;2.33;1.63;;;;;;;;;;5093730;28;20487;-72
2023/01/08 05:08:13;;;;;;;1.77;1.60;;;;;;;;;;5093253;28;20449;-72
2023/01/08 05:10:40;;;;;;;2.23;1.30;;;;;;;;;;5092992;28;20452;-72
2023/01/08 05:13:07;;;;;;;2.23;1.20;;;;;;;;;;5092856;28;20827;-72
2023/01/08 05:15:34;;;;;;;2.00;1.47;;;;;;;;;;5093216;28;20456;-72
2023/01/08 05:18:03;;;;;;;1.53;1.30;;;;;;;;;;5093601;28;20447;-72
2023/01/08 05:20:32;;;;;;;1.83;1.17;;;;;;;;;;5080131;28;20452;-72
2023/01/08 05:22:59;;;;;;;1.40;0.97;;;;;;;;;;5093630;28;20464;-72
2023/01/08 05:25:26;;;;;;;2.50;1.30;;;;;;;;;;5092649;28;20476;-72
2023/01/08 05:27:53;;;;;;;1.43;0.80;;;;;;;;;;5093322;28;20454;-72
2023/01/08 05:30:20;;;;;;;1.23;0.93;;;;;;;;;;5092448;28;20445;-72
2023/01/08 05:32:48;;;;;;;1.30;1.00;;;;;;;;;;5092987;28;20449;-72
2023/01/08 05:35:15;;;;;;;3.97;1.20;;;;;;;;;;5092644;28;20453;-72
2023/01/08 05:37:43;;;;;;;1.20;1.00;;;;;;;;;;5092645;28;20461;-72
2023/01/08 05:40:11;;;;;;;2.00;1.10;;;;;;;;;;5091957;28;20459;-72
2023/01/08 05:42:38;;;;;;;1.13;1.03;;;;;;;;;;5092562;28;20458;-72
2023/01/08 05:45:05;;;;;;;2.10;1.20;;;;;;;;;;5091988;28;20469;-72
2023/01/08 05:47:33;;;;;;;1.10;0.83;;;;;;;;;;5092616;28;20479;-72
2023/01/08 05:50:00;;;;;;;1.37;1.03;;;;;;;;;;5092595;28;20444;-72
2023/01/08 05:52:28;;;;;;;2.63;1.17;;;;;;;;;;5092135;28;20448;-72
2023/01/08 05:54:58;;;;;;;1.80;1.00;;;;;;;;;;5092614;28;20462;-73
2023/01/08 05:57:25;;;;;;;1.03;0.83;;;;;;;;;;5091991;28;20901;-72
2023/01/08 05:59:53;;;;;;;0.87;0.60;;;;;;;;;;5092279;28;20452;-72
2023/01/08 06:02:20;;;;;;;2.23;1.00;;;;;;;;;;5092160;28;20453;-72
2023/01/08 06:04:47;;;;;;;1.10;0.80;;;;;;;;;;5092636;28;20480;-72
2023/01/08 06:07:14;;;;;;;1.20;0.90;;;;;;;;;;5092334;28;20772;-72
2023/01/08 06:09:41;;;;;;;1.10;0.70;;;;;;;;;;5092558;28;20441;-72
2023/01/08 06:12:09;;;;;;;1.30;1.00;;;;;;;;;;5092066;28;21630;-72
2023/01/08 06:14:36;;;;;;;1.13;0.57;;;;;;;;;;5092771;28;20810;-72
2023/01/08 06:17:04;;;;;;;1.10;0.90;;;;;;;;;;5092169;28;20444;-71
2023/01/08 06:19:31;;;;;;;1.00;0.70;;;;;;;;;;5092243;28;20453;-72
2023/01/08 06:21:58;;;;;;;1.70;1.03;;;;;;;;;;5092422;28;20452;-72
2023/01/08 06:24:25;;;;;;;1.00;0.90;;;;;;;;;;5091816;28;20799;-72
2023/01/08 06:26:52;;;;;;;0.70;0.50;;;;;;;;;;5092424;28;20444;-72
2023/01/08 06:29:21;;;;;;;0.93;0.77;;;;;;;;;;5091039;28;20448;-72
2023/01/08 06:31:48;;;;;;;1.00;0.80;;;;;;;;;;5092136;28;20441;-72
2023/01/08 06:34:15;;;;;;;2.23;0.80;;;;;;;;;;5091707;28;20810;-72
2023/01/08 06:36:42;;;;;;;0.90;0.80;;;;;;;;;;5092471;28;20444;-73
2023/01/08 06:39:09;;;;;;;0.80;0.60;;;;;;;;;;5090815;28;20449;-72
2023/01/08 06:41:36;;;;;;;1.00;0.70;;;;;;;;;;5092228;28;20449;-72
2023/01/08 06:44:04;;;;;;;0.93;0.60;;;;;;;;;;5091170;28;20481;-71
2023/01/08 06:46:37;;;;;;;2.80;0.77;;;;;;;;;;5092232;28;20484;-72
2023/01/08 06:49:04;;;;;;;3.30;1.33;;;;;;;;;;5091606;28;20441;-71
2023/01/08 06:51:31;;;;;;;0.93;0.70;;;;;;;;;;5092062;28;20471;-72
2023/01/08 06:53:58;;;;;;;0.90;0.70;;;;;;;;;;5092120;28;20441;-72
2023/01/08 06:56:25;;;;;;;1.37;0.97;;;;;;;;;;5091124;28;20457;-72
2023/01/08 06:58:52;;;;;;;0.97;0.60;;;;;;;;;;5091566;28;20455;-72
2023/01/08 07:01:21;;;;;;;1.60;0.80;;;;;;;;;;5090590;28;20460;-72
2023/01/08 07:03:50;;;;;;;1.33;1.00;;;;;;;;;;5091761;28;20448;-72
2023/01/08 07:06:18;;;;;;;2.23;1.70;;;;;;;;;;5091220;28;20489;-72
2023/01/08 07:08:45;;;;;;;3.07;1.00;;;;;;;;;;5091617;28;20452;-72
2023/01/08 07:11:13;;;;;;;1.10;0.90;;;;;;;;;;5090885;28;20798;-72
2023/01/08 07:13:40;;;;;;;1.20;0.63;;;;;;;;;;5091783;28;20452;-73
2023/01/08 07:16:07;;;;;;;1.40;0.70;;;;;;;;;;5091117;28;20463;-72
2023/01/08 07:18:35;;;;;;;2.87;1.07;;;;;;;;;;5091531;28;20448;-72
2023/01/08 07:21:04;;;;;;;1.10;0.60;;;;;;;;;;5091406;28;20444;-72
2023/01/08 07:23:31;;;;;;;1.03;0.77;;;;;;;;;;5091597;28;20448;-72
2023/01/08 07:26:00;;;;;;;0.90;0.77;;;;;;;;;;5091286;28;20547;-73
2023/01/08 07:28:27;;;;;;;1.00;0.90;;;;;;;;;;5077014;28;20476;-74
2023/01/08 07:30:55;;;;;;;0.80;0.70;;;;;;;;;;5091025;28;20513;-73
2023/01/08 07:33:22;;;;;;;2.30;0.90;;;;;;;;;;5090482;28;20449;-72
2023/01/08 07:35:52;;;;;;;4.63;0.87;;;;;;;;;;5091383;28;20795;-73
2023/01/08 07:38:20;;;;;;;1.73;0.87;;;;;;;;;;5090831;28;20455;-72
2023/01/08 07:40:47;;;;;;;0.70;0.50;;;;;;;;;;5090416;28;20449;-72
2023/01/08 07:43:15;;;;;;;2.30;1.20;;;;;;;;;;5090876;28;20480;-72
2023/01/08 07:45:42;;;;;;;1.63;0.90;;;;;;;;;;5091237;28;20487;-71
2023/01/08 07:48:14;;;;;;;1.77;0.77;;;;;;;;;;5090583;28;20445;-71
2023/01/08 07:50:41;;;;;;;1.97;1.00;;;;;;;;;;5090852;28;20437;-72
2023/01/08 07:53:09;;;;;;;1.60;1.00;;;;;;;;;;5090863;28;20457;-71
2023/01/08 07:55:37;;;;;;;1.00;0.70;;;;;;;;;;5092360;28;20554;-71
2023/01/08 07:58:08;;;;;;;1.07;0.80;;;;;;;;;;5094507;28;20449;-73
2023/01/08 08:00:35;;;;;;;1.20;1.00;;;;;;;;;;5094673;28;20440;-72
2023/01/08 08:03:04;;;;;;;1.10;0.70;;;;;;;;;;5095403;28;20459;-71
2023/01/08 08:05:31;;;;;;;1.23;0.77;;;;;;;;;;5094800;28;20473;-71
2023/01/08 08:07:58;;;;;;;1.53;1.10;;;;;;;;;;5095238;28;20451;-72
2023/01/08 08:10:25;;;;;;;0.83;0.73;;;;;;;;;;5093636;28;20456;-71
2023/01/08 08:12:53;;;;;;;0.80;0.50;;;;;;;;;;5095151;28;20806;-71
2023/01/08 08:15:20;;;;;;;1.13;0.67;;;;;;;;;;5094068;28;20451;-71
2023/01/08 08:17:48;;;;;;;1.50;0.70;;;;;;;;;;5095054;28;20450;-71
2023/01/08 08:20:15;;;;;;;1.43;0.80;;;;;;;;;;5093943;28;20446;-71
2023/01/08 08:22:43;;;;;;;0.97;0.80;;;;;;;;;;5094955;28;20445;-71
2023/01/08 08:25:10;;;;;;;1.37;0.90;;;;;;;;;;5094129;28;20479;-71
2023/01/08 08:27:37;;;;;;;1.10;0.80;;;;;;;;;;5094647;28;20939;-71
2023/01/08 08:30:07;;;;;;;1.20;0.73;;;;;;;;;;5093797;28;20453;-71
2023/01/08 08:32:34;;;;;;;0.80;0.60;;;;;;;;;;5094681;28;20471;-72
2023/01/08 08:35:01;;;;;;;0.90;0.80;;;;;;;;;;5094848;28;20459;-72
2023/01/08 08:37:28;;;;;;;1.33;0.70;;;;;;;;;;5094405;28;20543;-72
2023/01/08 08:39:55;;;;;;;1.83;0.70;;;;;;;;;;5094074;28;20440;-73
2023/01/08 08:42:22;;;;;;;1.83;1.00;;;;;;;;;;5093536;28;20813;-71
2023/01/08 08:44:49;;;;;;;1.70;0.97;;;;;;;;;;5094529;28;20471;-72
2023/01/08 08:47:18;;;;;;;2.40;1.27;;;;;;;;;;5093815;28;20495;-74
2023/01/08 08:49:45;;;;;;;1.27;0.60;;;;;;;;;;5094061;28;20448;-74
2023/01/08 08:52:12;;;;;;;1.30;1.00;;;;;;;;;;5093729;28;20460;-74
2023/01/08 08:54:40;;;;;;;2.70;0.90;;;;;;;;;;5094226;28;20805;-73
2023/01/08 08:57:08;;;;;;;1.20;0.97;;;;;;;;;;5093525;28;20483;-73
2023/01/08 08:59:35;;;;;;;1.13;0.70;;;;;;;;;;5093486;28;21013;-73
2023/01/08 09:02:02;;;;;;;1.53;0.70;;;;;;;;;;5094224;28;20452;-73
2023/01/08 09:04:31;;;;;;;0.73;0.50;;;;;;;;;;5094342;28;20451;-73
2023/01/08 09:06:59;;;;;;;0.90;0.73;;;;;;;;;;5093565;28;20480;-73
2023/01/08 09:09:26;;;;;;;1.00;0.83;;;;;;;;;;5092865;28;20448;-73
2023/01/08 09:11:54;;;;;;;1.70;1.07;;;;;;;;;;5093589;28;20452;-73
2023/01/08 09:14:21;;;;;;;0.80;0.50;;;;;;;;;;5093400;28;20466;-72
2023/01/08 09:16:48;;;;;;;0.70;0.50;;;;;;;;;;5093748;28;20453;-72
2023/01/08 09:19:15;;;;;;;0.80;0.70;;;;;;;;;;5092821;28;20785;-72
2023/01/08 09:21:44;;;;;;;1.30;1.00;;;;;;;;;;5093768;28;20453;-72
2023/01/08 09:24:11;;;;;;;0.93;0.67;;;;;;;;;;5093020;28;20818;-72
2023/01/08 09:26:38;;;;;;;0.90;0.60;;;;;;;;;;5093507;28;20477;-73
2023/01/08 09:29:05;;;;;;;1.60;0.80;;;;;;;;;;5092733;28;20453;-72
2023/01/08 09:31:34;;;;;;;1.33;0.90;;;;;;;;;;5093703;28;20790;-73
2023/01/08 09:34:02;;;;;;;2.40;1.20;;;;;;;;;;5093730;28;20481;-73
2023/01/08 09:36:30;;;;;;;1.50;1.40;;;;;;;;;;5093339;28;20933;-73
2023/01/08 09:38:58;;;;;;;1.07;0.67;;;;;;;;;;5092989;28;20468;-73
2023/01/08 09:41:27;;;;;;;0.90;0.80;;;;;;;;;;5092257;28;20996;-73
2023/01/08 09:43:56;;;;;;;7.10;1.10;;;;;;;;;;5093171;28;20476;-73
2023/01/08 09:46:25;;;;;;;2.53;1.27;;;;;;;;;;5092455;28;20485;-73
2023/01/08 09:48:52;;;;;;;1.43;0.93;;;;;;;;;;5092828;28;20456;-73
2023/01/08 09:51:20;;;;;;;1.90;1.10;;;;;;;;;;5092789;28;20467;-73
2023/01/08 09:53:50;;;;;;;2.70;1.40;;;;;;;;;;5092834;28;20456;-73
2023/01/08 09:56:19;;;;;;;1.67;0.90;;;;;;;;;;5092111;28;20476;-73
2023/01/08 09:58:49;;;;;;;1.07;0.70;;;;;;;;;;5092592;28;20948;-73
2023/01/08 10:01:18;;;;;;;0.90;0.63;;;;;;;;;;5092153;28;21011;-73
2023/01/08 10:03:47;;;;;;;1.00;0.77;;;;;;;;;;5093065;28;20451;-73
2023/01/08 10:06:15;;;;;;;1.07;0.80;;;;;;;;;;5092408;28;20501;-73
2023/01/08 10:08:42;;;;;;;2.00;0.93;;;;;;;;;;5092609;28;20456;-73
2023/01/08 10:11:10;;;;;;;0.83;0.70;;;;;;;;;;5091806;28;20449;-73
2023/01/08 10:13:40;;;;;;;1.27;0.93;;;;;;;;;;5092846;28;20460;-73
2023/01/08 10:16:09;;;;;;;1.30;0.93;;;;;;;;;;5092336;28;20467;-73
2023/01/08 10:18:37;;;;;;;1.60;0.90;;;;;;;;;;5091649;28;20451;-74
2023/01/08 10:21:04;;;;;;;2.63;0.80;;;;;;;;;;5091411;28;20934;-72
2023/01/08 10:23:31;;;;;;;0.90;0.60;;;;;;;;;;5092412;28;20942;-73
2023/01/08 10:25:59;;;;;;;1.00;0.90;;;;;;;;;;5092366;28;20487;-72
2023/01/08 10:28:27;;;;;;;1.07;0.97;;;;;;;;;;5091673;28;20455;-72
2023/01/08 10:31:00;;;;;;;0.70;0.50;;;;;;;;;;5091935;28;20463;-73
2023/01/08 10:33:31;;;;;;;1.27;0.70;;;;;;;;;;5079251;28;20447;-72
2023/01/08 10:35:59;;;;;;;0.87;0.60;;;;;;;;;;5092368;28;20448;-74
2023/01/08 10:38:27;;;;;;;4.43;0.87;;;;;;;;;;5091808;28;20447;-72
2023/01/08 10:40:56;;;;;;;0.80;0.60;;;;;;;;;;5091624;28;20448;-73
2023/01/08 10:43:24;;;;;;;0.87;0.67;;;;;;;;;;5091347;28;20480;-73
2023/01/08 10:45:57;;;;;;;0.90;0.63;;;;;;;;;;5091637;28;21010;-74
2023/01/08 10:48:26;;;;;;;1.50;1.03;;;;;;;;;;5091777;28;20459;-73
2023/01/08 10:51:03;;;;;;;1.10;0.60;;;;;;;;;;5091662;28;20495;-73
2023/01/08 10:53:31;;;;;;;1.00;0.70;;;;;;;;;;5092311;28;20446;-74
2023/01/08 10:55:59;;;;;;;1.20;0.77;;;;;;;;;;5091985;28;20487;-74
2023/01/08 10:58:28;;;;;;;0.90;0.70;;;;;;;;;;5091431;28;20447;-74
2023/01/08 11:01:08;;;;;;;1.10;0.63;;;;;;;;;;5091182;28;20448;-74
2023/01/08 11:03:36;;;;;;;0.80;0.80;;;;;;;;;;5091892;28;20768;-73
2023/01/08 11:06:10;;;;;;;1.87;0.70;;;;;;;;;;5091699;28;20484;-74
2023/01/08 11:08:37;;;;;;;2.67;0.90;;;;;;;;;;5091833;28;20530;-73
2023/01/08 11:11:04;;;;;;;1.20;1.10;;;;;;;;;;5091301;28;20448;-72
2023/01/08 11:13:31;;;;;;;1.37;0.90;;;;;;;;;;5091261;28;20480;-74
2023/01/08 11:16:03;;;;;;;1.00;0.70;;;;;;;;;;5091943;28;20452;-74
2023/01/08 11:18:31;;;;;;;1.73;0.80;;;;;;;;;;5091429;28;21061;-74
2023/01/08 11:21:07;;;;;;;1.33;0.90;;;;;;;;;;5090953;28;20452;-74
2023/01/08 11:23:34;;;;;;;0.80;0.60;;;;;;;;;;5091616;28;20444;-73
2023/01/08 11:26:05;;;;;;;1.00;0.80;;;;;;;;;;5091137;28;20448;-74
2023/01/08 11:28:45;;;;;;;1.07;0.57;;;9.90;91.10;;;;;;5078822;28;20437;-74
2023/01/08 11:31:21;;;;;;;1.63;0.70;;;10.70;99.90;;;;;;5091043;28;20441;-74
2023/01/08 11:33:53;;;;;;;0.90;0.70;;;10.70;99.90;;;;;;5091513;28;20451;-74
2023/01/08 11:36:26;;;;;;;1.03;0.60;;;10.80;99.90;;;;;;5090843;28;20471;-74
2023/01/08 11:38:52;;;;;;;2.07;0.67;;;10.80;99.90;;;;;;5090768;28;20440;-74
2023/01/08 11:41:38;;;;;;;0.90;0.50;;;10.70;99.90;;;;;;5090716;28;20476;-74
2023/01/08 11:44:18;;;;;;;1.13;0.80;;;10.70;99.90;;;;;;5090724;28;20491;-73
2023/01/08 11:46:56;;;;;;;1.00;0.70;;;10.80;99.90;;;;;;5091001;28;20475;-74
2023/01/08 11:49:47;;;;;;;0.93;0.70;;;10.80;99.90;;;;;;5090181;28;20440;-73
2023/01/08 11:52:34;;;;;;;2.93;1.20;;;10.80;1.00;;;;;;5090774;28;20444;-74
2023/01/08 11:55:19;;;;;;;0.80;0.60;;;10.80;99.90;;;;;;5091278;28;20456;-73
2023/01/08 11:57:59;;;;;;;1.00;0.60;;;10.90;99.90;;;;;;5077983;28;20467;-74
2023/01/08 12:00:49;;;;;;;1.60;0.80;;;10.90;94.60;;;;;;5090162;28;20441;-74
2023/01/08 12:03:29;;;;;;;0.90;0.57;;;10.90;1.00;;;;;;5090706;28;20443;-74
2023/01/08 12:06:07;;;;;;;0.80;0.67;;;10.90;1.00;;;;;;5078337;28;20799;-74
2023/01/08 12:08:40;;;;;;;0.87;0.47;;;10.70;99.90;;;;;;5090590;28;20444;-73
2023/01/08 12:11:14;;;;;;;3.17;0.80;;;10.80;99.90;;;;;;5090542;28;20460;-73
2023/01/08 12:13:59;;;;;;;1.00;0.70;;;10.80;99.90;;;;;;5090758;28;20456;-74
2023/01/08 12:16:42;;;;;;;0.87;0.70;;;10.80;72.60;;;;;;5090358;28;20456;-73
2023/01/08 12:19:21;;;;;;;1.10;0.60;;;10.70;99.90;;;;;;5089956;28;20456;-73
2023/01/08 12:22:03;;;;;;;0.83;0.70;;;10.70;99.90;;;;;;5090866;28;20448;-73
2023/01/08 12:24:56;;;;;;;0.90;0.80;;;10.70;99.90;;;;;;5090705;28;20950;-73
2023/01/08 12:27:34;;;;;;;0.70;0.67;;;10.70;99.90;;;;;;5090307;28;20691;-73
2023/01/08 12:30:15;;;;;;;0.80;0.60;;;10.80;1.00;;;;;;5090446;28;20448;-73
2023/01/08 12:32:46;;;;;;;1.43;0.80;;;10.90;99.90;;;;;;5090428;28;20448;-73
2023/01/08 12:35:18;;;;;;;1.03;0.70;;;10.90;52.50;;;;;;5090324;28;20452;-73
2023/01/08 12:37:52;;;;;;;2.60;1.60;;;10.80;1.00;;;;;;5090913;28;20471;-73
2023/01/08 12:40:23;;;;;;;1.50;0.70;;;10.90;1.00;;;;;;5089723;28;20440;-72
2023/01/08 12:42:50;;;;;;;1.30;0.60;;;10.80;1.00;;;;;;5093462;28;20476;-74
2023/01/08 12:45:24;;;;;;;1.07;0.60;;;10.80;1.00;;;;;;5094042;28;20448;-71
2023/01/08 12:47:54;;;;;;;1.37;0.73;;;10.80;1.00;;;;;;5093936;28;20476;-72
2023/01/08 12:50:41;;;;;;;1.60;0.80;;;10.90;1.00;;;;;;5093412;28;20448;-72
2023/01/08 12:53:14;;;;;;;0.80;0.60;;;11.00;1.00;;;;;;5082610;28;20455;-71
2023/01/08 12:55:46;;;;;;;0.80;0.50;;;10.90;1.00;;;;;;5094088;28;20452;-72
2023/01/08 12:58:25;;;;;;;1.20;0.60;;;11.00;1.00;;;;;;5093870;28;20448;-72
2023/01/08 13:00:59;;;;;;;1.17;0.70;;;11.00;1.00;;;;;;5093495;28;20958;-73
2023/01/08 13:03:29;;;;;;;0.97;0.73;;;11.00;1.00;;;;;;5093640;28;20447;-73
2023/01/08 13:06:08;;;;;;;1.17;0.80;;;11.00;1.00;;;;;;5093939;28;20952;-73
2023/01/08 13:08:37;;;;;;;0.90;0.60;;;11.00;1.00;;;;;;5093625;28;20476;-73
2023/01/08 13:11:04;;;;;;;1.73;0.87;;;11.00;1.00;;;;;;5093508;28;20453;-72
2023/01/08 13:13:34;;;;;;;1.00;0.70;;;11.00;1.00;;;;;;5093930;28;20827;-73
2023/01/08 13:16:20;;;;;;;1.00;0.70;;;10.90;1.00;;;;;;5094305;28;20951;-73
2023/01/08 13:18:55;;;;;;;1.13;0.70;;;10.90;1.00;;;;;;5094032;28;20552;-73
2023/01/08 13:21:33;;;;;;;1.00;0.90;;;11.00;1.00;;;;;;5093229;28;20538;-73
2023/01/08 13:24:02;;;;;;;0.80;0.53;;;10.90;1.00;;;;;;5093795;28;20959;-73
2023/01/08 13:26:30;;;;;;;3.87;0.90;;;10.80;1.00;;;;;;5093768;28;20485;-73
2023/01/08 13:29:08;;;;;;;0.77;0.60;;;10.80;1.00;;;;;;5093373;28;20445;-73
2023/01/08 13:31:41;;;;;;;0.80;0.70;;;10.90;1.00;;;;;;5093609;28;20454;-73
2023/01/08 13:34:33;;;;;;;1.63;0.53;;;10.90;1.00;;;;;;5092794;28;20451;-72
2023/01/08 13:37:03;;;;;;;1.17;0.60;;;10.90;1.00;;;;;;5083667;28;20496;-73
2023/01/08 13:39:34;;;;;;;0.70;0.50;;;10.90;1.00;;;;;;5093350;28;20544;-73
2023/01/08 13:42:05;;;;;;;1.37;0.80;;;10.90;1.00;;;;;;5093505;28;20509;-73
2023/01/08 13:44:34;;;;;;;0.77;0.67;;;11.00;1.00;;;;;;5093059;28;20469;-73
2023/01/08 13:47:04;;;;;;;1.10;0.67;;;11.10;1.00;;;;;;5092986;28;20484;-73
2023/01/08 13:49:36;;;;;;;1.30;1.00;;;11.10;1.00;;;;;;5092928;28;20454;-73
2023/01/08 13:52:05;;;;;;;0.80;0.50;;;11.20;99.90;;;;;;5093163;28;20463;-72
2023/01/08 13:54:35;;;;;;;1.10;0.60;;;11.10;99.90;;;;;;5093440;28;20458;-72
2023/01/08 13:57:11;;;;;;;0.97;0.60;;;11.30;1.00;;;;;;5093453;28;20562;-72
2023/01/08 13:59:40;;;;;;;1.23;0.70;;;11.40;99.90;;;;;;5092659;28;20440;-72
2023/01/08 14:02:26;;;;;;;1.00;0.80;;;11.50;99.90;;;;;;5092345;28;20547;-72
2023/01/08 14:04:54;;;;;;;0.80;0.50;;;;;;;;;;5093163;28;20906;-72
2023/01/08 14:07:23;;;;;;;0.70;0.50;;;;;;;;;;5092356;28;20485;-73
2023/01/08 14:09:50;;;;;;;1.10;0.70;;;;;;;;;;5092052;28;20814;-72
2023/01/08 14:12:19;;;;;;;1.73;1.00;;;;;;;;;;5092232;28;20460;-72
2023/01/08 14:14:48;;;;;;;0.80;0.60;;;;;;;;;;5092843;28;20451;-73
2023/01/08 14:17:16;;;;;;;0.83;0.60;;;;;;;;;;5092274;28;20448;-72
2023/01/08 14:19:44;;;;;;;1.10;0.87;;;;;;;;;;5092301;28;20444;-73
2023/01/08 14:22:14;;;;;;;1.10;0.70;;;;;;;;;;5091795;28;20445;-72
2023/01/08 14:24:43;;;;;;;1.50;0.90;;;;;;;;;;5092453;28;20449;-73
2023/01/08 14:27:19;;;;;;;1.37;1.27;;;;;;;;;;5091293;28;20476;-72
2023/01/08 14:29:46;;;;;;;0.80;0.50;;;;;;;;;;5091993;28;20445;-72
2023/01/08 14:32:16;;;;;;;1.20;0.70;;;;;;;;;;5091952;28;20445;-72
2023/01/08 14:34:43;;;;;;;0.80;0.60;;;;;;;;;;5092172;28;20441;-72